CheckWX is a tool to help pilots better visualize weather data.  It is not intended as a substitute for an official pre-flight weather briefing.

08:19:12 UTC

KRNC METAR
Warren County Memorial Airport
Mc Minnville, Tennessee, USA
Current

24 mins ago

KRNC 230755Z AUTO 00000KT 10SM CLR 10/09 A3010 RMK A01
Observed
Apr-23 @ 07:55 UTC
Visibility
10 SM
Flight Rules
VFR
Cloud Levels
  • Clear skies
Temperature
10°C / 50°F
Dewpoint
C / 48°F
Humidity
94%
Altimeter
30.1" Hg
Pressure
1019.32 hPa
Previous

44 mins ago

KRNC 230735Z AUTO 00000KT 10SM CLR 10/09 A3010 RMK A01
Observed
Apr-23 @ 07:35 UTC
Visibility
10 SM
Flight Rules
VFR
Cloud Levels
  • Clear skies
Temperature
10°C / 50°F
Dewpoint
C / 48°F
Humidity
94%
Altimeter
30.1" Hg
Pressure
1019.32 hPa
Previous

1 hour ago

KRNC 230715Z AUTO 00000KT 10SM CLR 10/09 A3010 RMK A01
Observed
Apr-23 @ 07:15 UTC
Visibility
10 SM
Flight Rules
VFR
Cloud Levels
  • Clear skies
Temperature
10°C / 50°F
Dewpoint
C / 48°F
Humidity
94%
Altimeter
30.1" Hg
Pressure
1019.32 hPa